Time;durP1;ratioP1;P1;durP2;ratioP2;P2;SDS_P1;SDS_P2;PMS_P1;PMS_P2;Temp;Humidity;BMP_temperature;BMP_pressure;BME280_temperature;BME280_humidity;BME280_pressure;Samples;Min_cycle;Max_cycle;Signal;HPM_P1;HPM_P2
2022/06/08 00:00:42;;;;;;;16.67;15.18;;;;;;;16.20;96.15;98412.73;2237052;79;21299;-81
2022/06/08 00:03:45;;;;;;;16.27;14.73;;;;;;;16.15;95.84;98407.54;2237119;79;20888;-82
2022/06/08 00:06:43;;;;;;;17.12;15.25;;;;;;;16.10;95.21;98410.70;2237099;79;20948;-82
2022/06/08 00:09:43;;;;;;;17.95;16.10;;;;;;;16.08;95.62;98411.17;2236684;79;21366;-82
2022/06/08 00:12:44;;;;;;;19.07;15.40;;;;;;;16.06;96.26;98413.41;2236021;79;20991;-81
2022/06/08 00:15:44;;;;;;;19.40;16.80;;;;;;;16.02;95.99;98416.99;2236926;79;20982;-82
2022/06/08 00:18:45;;;;;;;17.25;15.65;;;;;;;16.02;96.23;98423.13;2237007;79;20920;-82
2022/06/08 00:21:45;;;;;;;21.30;15.90;;;;;;;15.99;95.78;98419.67;2236807;79;21339;-80
2022/06/08 00:24:45;;;;;;;17.48;15.65;;;;;;;15.99;95.44;98422.30;2236724;79;20987;-81
2022/06/08 00:27:46;;;;;;;15.90;14.43;;;;;;;15.97;95.29;98422.33;2237090;79;20988;-80
2022/06/08 00:30:46;;;;;;;16.65;14.95;;;;;;;15.97;95.67;98417.07;2236854;79;20959;-81
2022/06/08 00:33:46;;;;;;;17.60;15.72;;;;;;;15.99;95.74;98410.02;2236061;79;21301;-80
2022/06/08 00:36:47;;;;;;;15.72;14.33;;;;;;;16.00;95.14;98396.41;2237138;79;20991;-80
2022/06/08 00:39:47;;;;;;;16.57;14.90;;;;;;;16.00;94.99;98397.72;2236914;79;21042;-80
2022/06/08 00:42:48;;;;;;;15.38;13.88;;;;;;;15.99;95.04;98394.22;2236958;79;20916;-80
2022/06/08 00:45:48;;;;;;;16.40;14.47;;;;;;;16.00;95.06;98400.35;2237159;80;20924;-80
2022/06/08 00:48:48;;;;;;;15.25;13.65;;;;;;;15.98;94.52;98401.70;2237309;79;20923;-80
2022/06/08 00:51:49;;;;;;;13.75;12.55;;;;;;;16.00;95.33;98393.77;2237099;79;20961;-80
2022/06/08 00:54:50;;;;;;;15.50;13.93;;;;;;;15.99;94.52;98398.62;2237274;79;20916;-80
2022/06/08 00:57:50;;;;;;;16.62;15.08;;;;;;;16.01;94.64;98404.72;2237267;79;20995;-80
2022/06/08 01:00:50;;;;;;;16.87;13.65;;;;;;;16.01;94.53;98402.95;2237154;79;20927;-81
2022/06/08 01:03:51;;;;;;;15.03;13.62;;;;;;;16.02;94.17;98411.28;2236802;79;21330;-80
2022/06/08 01:06:51;;;;;;;15.53;14.07;;;;;;;16.02;94.01;98415.67;2237484;79;20930;-80
2022/06/08 01:09:51;;;;;;;15.35;13.70;;;;;;;16.02;93.94;98415.67;2237206;79;21034;-80
2022/06/08 01:12:52;;;;;;;17.85;15.55;;;;;;;16.04;93.97;98414.75;2237188;80;20928;-80
2022/06/08 01:15:52;;;;;;;17.95;15.00;;;;;;;16.06;93.73;98417.36;2237312;79;21051;-80
2022/06/08 01:18:52;;;;;;;16.70;14.58;;;;;;;16.08;93.74;98412.94;2237374;79;20916;-80
2022/06/08 01:21:53;;;;;;;14.70;13.40;;;;;;;16.08;93.57;98416.89;2237390;79;20913;-80
2022/06/08 01:24:53;;;;;;;14.90;13.32;;;;;;;16.10;93.55;98412.02;2238200;79;21291;-80
2022/06/08 01:27:54;;;;;;;14.40;13.00;;;;;;;16.14;93.36;98420.73;2238078;79;20949;-81
2022/06/08 01:30:54;;;;;;;15.88;13.15;;;;;;;16.14;93.05;98420.28;2238059;80;20962;-80
2022/06/08 01:33:55;;;;;;;16.27;14.70;;;;;;;16.08;93.03;98413.81;2238058;79;21302;-80
2022/06/08 01:36:55;;;;;;;15.28;13.68;;;;;;;16.05;93.23;98402.02;2237935;79;20967;-80
2022/06/08 01:39:55;;;;;;;17.70;14.38;;;;;;;16.04;93.38;98403.35;2237839;79;21065;-79
2022/06/08 01:42:56;;;;;;;20.55;15.05;;;;;;;16.02;93.19;98405.14;2238031;79;20981;-80
2022/06/08 01:45:56;;;;;;;20.97;16.23;;;;;;;16.03;93.30;98412.14;2238545;79;21298;-80
2022/06/08 01:48:57;;;;;;;21.97;17.45;;;;;;;16.05;93.20;98415.63;2238148;79;20943;-80
2022/06/08 01:51:58;;;;;;;16.48;14.70;;;;;;;16.06;93.19;98417.36;2238519;79;20915;-80
2022/06/08 01:54:58;;;;;;;13.58;12.45;;;;;;;16.06;92.96;98422.17;2238427;79;20908;-80
2022/06/08 01:57:58;;;;;;;14.47;13.03;;;;;;;16.07;93.04;98419.97;2238575;79;20928;-80
2022/06/08 02:00:59;;;;;;;14.50;13.00;;;;;;;16.08;92.99;98420.84;2238390;79;20919;-80
2022/06/08 02:03:59;;;;;;;14.43;13.05;;;;;;;16.05;92.81;98423.07;2238331;80;20947;-80
2022/06/08 02:06:59;;;;;;;18.55;14.85;;;;;;;16.02;92.99;98424.89;2237431;79;20881;-81
2022/06/08 02:10:00;;;;;;;17.17;13.25;;;;;;;16.02;93.05;98423.57;2193708;81;21377;-81
2022/06/08 02:13:01;;;;;;;15.95;14.35;;;;;;;16.06;93.19;98430.52;2238251;78;20952;-81
2022/06/08 02:16:01;;;;;;;15.85;14.25;;;;;;;16.07;93.05;98428.31;2238610;79;20967;-81
2022/06/08 02:19:01;;;;;;;16.30;13.98;;;;;;;16.07;92.93;98428.31;2236792;79;21295;-81
2022/06/08 02:22:02;;;;;;;15.70;14.15;;;;;;;16.06;93.21;98425.26;2237753;79;20927;-80
2022/06/08 02:25:02;;;;;;;20.77;18.15;;;;;;;16.04;93.22;98425.28;2226616;79;20969;-81
2022/06/08 02:28:03;;;;;;;14.70;13.30;;;;;;;16.02;93.35;98427.52;2211962;79;20928;-80
2022/06/08 02:31:03;;;;;;;16.25;13.95;;;;;;;15.98;93.78;98428.47;2210962;79;21277;-80
2022/06/08 02:37:22;;;;;;;14.30;12.30;;;;;;;15.97;94.01;98421.46;2210073;81;21023;-81
2022/06/08 02:40:23;;;;;;;13.35;11.95;;;;;;;15.99;93.79;98416.59;2211956;79;21422;-81
2022/06/08 02:43:23;;;;;;;14.13;12.50;;;;;;;16.02;94.05;98412.59;2210588;81;20956;-81
2022/06/08 02:46:23;;;;;;;14.95;13.65;;;;;;;16.02;93.93;98409.09;2212110;79;20956;-80
2022/06/08 02:49:24;;;;;;;14.23;13.03;;;;;;;16.00;94.15;98410.88;2211839;79;20924;-81
2022/06/08 02:52:24;;;;;;;17.37;13.43;;;;;;;15.96;93.83;98413.14;2210749;81;20929;-81
2022/06/08 02:55:25;;;;;;;14.45;13.15;;;;;;;15.95;93.85;98414.03;2210027;79;20890;-80
2022/06/08 02:58:25;;;;;;;14.65;13.25;;;;;;;15.95;94.10;98417.98;2209930;79;21000;-80
2022/06/08 03:01:25;;;;;;;13.68;12.45;;;;;;;15.90;94.16;98410.17;2209786;79;21319;-80
2022/06/08 03:04:26;;;;;;;14.98;13.15;;;;;;;15.86;94.17;98400.58;2209595;79;20976;-81
2022/06/08 03:07:26;;;;;;;17.20;14.83;;;;;;;15.82;93.93;98406.79;2209407;79;20925;-82
2022/06/08 03:10:27;;;;;;;14.07;12.73;;;;;;;15.83;94.58;98414.66;2209518;79;20972;-82
2022/06/08 03:13:27;;;;;;;14.15;12.85;;;;;;;15.79;94.29;98410.34;2209376;79;21351;-81
2022/06/08 03:16:27;;;;;;;14.68;13.28;;;;;;;15.78;94.31;98414.31;2209451;79;20973;-82
2022/06/08 03:19:28;;;;;;;16.75;12.93;;;;;;;15.78;94.34;98413.00;2209601;79;20897;-81
2022/06/08 03:22:28;;;;;;;15.23;13.65;;;;;;;15.80;94.34;98420.42;2209590;79;20956;-80
2022/06/08 03:25:29;;;;;;;15.00;13.50;;;;;;;15.83;94.24;98421.69;2208944;79;20969;-80
2022/06/08 03:28:30;;;;;;;16.73;14.93;;;;;;;15.83;94.51;98425.19;2209370;79;20941;-82
2022/06/08 03:31:30;;;;;;;21.42;15.08;;;;;;;15.87;94.33;98427.33;2208997;79;20964;-81
2022/06/08 03:34:30;;;;;;;15.50;14.03;;;;;;;15.87;94.33;98420.30;2207764;79;20925;-82
2022/06/08 03:37:30;;;;;;;16.80;13.70;;;;;;;15.91;94.28;98421.98;2207003;79;22037;-81
2022/06/08 03:40:31;;;;;;;14.40;12.58;;;;;;;15.95;94.38;98425.88;2206686;79;21028;-80
2022/06/08 03:43:31;;;;;;;15.23;13.72;;;;;;;15.92;93.94;98430.30;2207194;79;20940;-80
2022/06/08 03:46:32;;;;;;;16.02;12.70;;;;;;;15.89;93.75;98426.85;2208263;79;20928;-81
2022/06/08 03:49:34;;;;;;;16.77;14.43;;;;;;;15.87;94.07;98421.61;2208414;79;20971;-81
2022/06/08 03:52:32;;;;;;;16.23;14.68;;;;;;;15.91;94.88;98415.41;2208674;79;20948;-78
2022/06/08 03:55:33;;;;;;;15.40;13.90;;;;;;;15.97;94.73;98414.44;2209089;79;20929;-82
2022/06/08 03:58:33;;;;;;;14.83;13.35;;;;;;;16.00;94.43;98411.75;2209012;79;20886;-82
2022/06/08 04:01:34;;;;;;;14.40;12.60;;;;;;;16.04;94.42;98417.39;2209860;79;20965;-82
2022/06/08 04:04:34;;;;;;;14.33;12.82;;;;;;;16.07;93.80;98421.73;2209703;79;20957;-81
2022/06/08 04:07:34;;;;;;;14.73;13.28;;;;;;;16.13;93.99;98424.27;2210225;79;20928;-82
2022/06/08 04:10:35;;;;;;;16.15;14.55;;;;;;;16.19;93.38;98419.76;2209131;79;21517;-82
2022/06/08 04:13:35;;;;;;;15.32;13.38;;;;;;;16.25;93.15;98422.73;2208440;79;20996;-82
2022/06/08 04:16:36;;;;;;;16.45;13.85;;;;;;;16.33;93.71;98418.20;2208778;81;21047;-81
2022/06/08 04:19:36;;;;;;;16.32;14.43;;;;;;;16.40;93.57;98419.82;2208778;79;20940;-80
2022/06/08 04:22:36;;;;;;;16.00;13.45;;;;;;;16.44;92.98;98426.77;2208813;79;21391;-81
2022/06/08 04:25:37;;;;;;;14.55;13.15;;;;;;;16.43;92.50;98427.67;2220710;79;21018;-81
2022/06/08 04:28:37;;;;;;;13.95;12.40;;;;;;;16.45;92.74;98428.52;2235100;79;21002;-81
2022/06/08 04:31:38;;;;;;;13.93;12.63;;;;;;;16.59;92.64;98432.23;2234441;79;20912;-79
2022/06/08 04:34:38;;;;;;;17.12;13.38;;;;;;;16.71;92.25;98432.48;2234323;79;21366;-80
2022/06/08 04:37:39;;;;;;;13.25;12.07;;;;;;;16.82;91.71;98435.78;2234765;79;21034;-81
2022/06/08 04:40:39;;;;;;;13.93;12.65;;;;;;;16.95;91.59;98437.27;2234822;79;21030;-80
2022/06/08 04:43:41;;;;;;;17.05;12.43;;;;;;;17.02;91.15;98436.25;2233908;79;21314;-79
2022/06/08 04:46:40;;;;;;;13.32;12.00;;;;;;;17.09;90.90;98437.86;2233874;79;20979;-78
2022/06/08 04:49:41;;;;;;;14.80;13.28;;;;;;;17.20;90.97;98442.91;2233655;79;20947;-78
2022/06/08 04:52:40;;;;;;;13.10;11.73;;;;;;;17.24;90.43;98446.35;2234009;79;20928;-79
2022/06/08 04:55:41;;;;;;;13.98;12.58;;;;;;;17.24;90.23;98452.50;2233603;79;20979;-77
2022/06/08 04:58:41;;;;;;;13.60;12.40;;;;;;;17.29;90.05;98453.72;2231349;79;20967;-77
2022/06/08 05:01:42;;;;;;;13.93;12.63;;;;;;;17.30;89.31;98451.50;2230280;79;21284;-77
2022/06/08 05:04:42;;;;;;;14.00;12.68;;;;;;;17.32;89.32;98462.44;2230637;78;21017;-78
2022/06/08 05:07:42;;;;;;;13.20;11.90;;;;;;;17.28;88.90;98461.21;2231190;80;20971;-78
2022/06/08 05:10:43;;;;;;;12.63;11.33;;;;;;;17.13;88.68;98471.18;2232351;79;21066;-77
2022/06/08 05:13:46;;;;;;;13.30;11.90;;;;;;;17.06;89.20;98467.38;2232770;79;20991;-77
2022/06/08 05:16:44;;;;;;;14.80;13.13;;;;;;;17.06;89.98;98460.34;2230640;79;21377;-77
2022/06/08 05:19:45;;;;;;;14.47;13.08;;;;;;;17.06;89.80;98455.52;2231400;79;21010;-76
2022/06/08 05:22:45;;;;;;;14.15;13.03;;;;;;;17.04;89.97;98438.41;2231482;79;21350;-78
2022/06/08 05:25:45;;;;;;;14.78;13.30;;;;;;;16.99;89.79;98445.99;2219578;79;21019;-76
2022/06/08 05:28:45;;;;;;;15.58;13.88;;;;;;;16.92;90.22;98436.47;2204642;79;20952;-77
2022/06/08 05:31:46;;;;;;;16.57;13.80;;;;;;;16.87;91.35;98432.61;2206407;79;21015;-78
2022/06/08 05:34:46;;;;;;;15.18;13.72;;;;;;;16.82;91.18;98423.92;2206051;79;21391;-78
2022/06/08 05:37:47;;;;;;;15.80;14.30;;;;;;;16.83;91.66;98425.66;2205480;81;21019;-77
2022/06/08 05:40:47;;;;;;;14.78;13.40;;;;;;;16.84;91.92;98414.22;2205335;79;21015;-78
2022/06/08 05:43:47;;;;;;;16.97;15.23;;;;;;;16.85;91.51;98419.91;2206468;79;20980;-78
2022/06/08 05:46:48;;;;;;;16.07;14.55;;;;;;;16.93;91.78;98438.20;2206598;79;21003;-78
2022/06/08 05:49:48;;;;;;;15.90;14.25;;;;;;;16.97;91.42;98435.48;2207428;79;21379;-78
2022/06/08 05:52:49;;;;;;;15.32;13.93;;;;;;;17.00;91.25;98438.05;2206291;79;21019;-78
2022/06/08 05:55:49;;;;;;;15.98;14.10;;;;;;;17.08;91.43;98440.08;2206790;81;20955;-79
2022/06/08 05:58:50;;;;;;;16.55;14.93;;;;;;;17.17;90.64;98439.02;2206157;79;20952;-79
2022/06/08 06:01:50;;;;;;;14.68;13.48;;;;;;;17.27;91.31;98427.82;2205807;79;20982;-79
2022/06/08 06:04:50;;;;;;;16.17;14.68;;;;;;;17.37;90.70;98428.07;2207534;81;20983;-79
2022/06/08 06:07:51;;;;;;;14.73;13.43;;;;;;;17.39;90.52;98434.19;2207977;79;20988;-79
2022/06/08 06:10:51;;;;;;;15.23;13.75;;;;;;;17.31;90.51;98429.49;2208820;81;21030;-80
2022/06/08 06:13:52;;;;;;;14.63;13.32;;;;;;;17.25;90.57;98430.49;2206848;81;20897;-80
2022/06/08 06:16:52;;;;;;;14.15;12.88;;;;;;;17.20;90.70;98424.00;2207962;81;21039;-80
2022/06/08 06:19:53;;;;;;;14.85;13.45;;;;;;;17.16;90.52;98430.23;2207176;79;21438;-79
2022/06/08 06:22:53;;;;;;;14.90;13.50;;;;;;;17.22;91.36;98433.64;2207776;79;21094;-80
2022/06/08 06:25:53;;;;;;;15.63;14.30;;;;;;;17.27;91.01;98436.61;2217712;79;21003;-80
2022/06/08 06:28:54;;;;;;;14.35;12.93;;;;;;;17.28;90.74;98434.38;2233927;79;20911;-79
2022/06/08 06:31:54;;;;;;;15.05;13.75;;;;;;;17.31;90.50;98440.91;2233676;79;20970;-79
2022/06/08 06:34:55;;;;;;;14.07;12.80;;;;;;;17.39;90.66;98443.42;2233272;79;20979;-78
2022/06/08 06:37:55;;;;;;;13.90;12.70;;;;;;;17.39;89.97;98441.65;2233296;79;21006;-79
2022/06/08 06:40:55;;;;;;;14.25;12.95;;;;;;;17.46;89.94;98440.61;2232546;79;21093;-79
2022/06/08 06:43:56;;;;;;;15.55;14.03;;;;;;;17.54;90.45;98444.84;2231576;78;21014;-78
2022/06/08 06:46:56;;;;;;;15.35;13.83;;;;;;;17.65;90.08;98444.16;2232816;80;21030;-78
2022/06/08 06:49:57;;;;;;;15.15;13.65;;;;;;;17.65;89.39;98452.94;2234816;79;21019;-78
2022/06/08 06:52:59;;;;;;;15.72;14.23;;;;;;;17.64;89.14;98453.84;2234466;79;21034;-78
2022/06/08 06:55:57;;;;;;;15.70;14.13;;;;;;;17.63;89.45;98462.66;2234059;80;21018;-79
2022/06/08 06:58:58;;;;;;;16.05;14.30;;;;;;;17.71;89.81;98463.39;2233731;79;21298;-79
2022/06/08 07:01:58;;;;;;;14.83;13.43;;;;;;;17.74;90.04;98459.36;2233196;79;21063;-78
2022/06/08 07:04:59;;;;;;;12.07;11.13;;;;;;;17.73;89.46;98460.27;2232421;78;20919;-78
2022/06/08 07:07:59;;;;;;;12.10;10.90;;;;;;;17.71;89.24;98458.11;2232917;79;21343;-79
2022/06/08 07:14:18;;;;;;;13.75;12.60;;;;;;;17.70;89.86;98449.78;2233583;80;20927;-78
2022/06/08 07:17:19;;;;;;;13.58;12.37;;;;;;;17.72;90.13;98442.69;2235465;78;21049;-78
2022/06/08 07:20:19;;;;;;;13.15;11.75;;;;;;;17.75;90.21;98445.71;2236274;78;21427;-79
2022/06/08 07:23:20;;;;;;;11.12;10.00;;;;;;;17.78;89.98;98447.83;2233974;79;21553;-78
2022/06/08 07:26:24;;;;;;;12.10;11.00;;;;;;;17.83;89.65;98455.19;2221039;79;21039;-77
2022/06/08 07:29:21;;;;;;;10.45;9.38;;;;;;;17.89;89.40;98456.81;2205676;79;20924;-77
2022/06/08 07:32:21;;;;;;;10.95;9.35;;;;;;;17.97;88.82;98457.50;2207234;79;21293;-77
2022/06/08 07:35:22;;;;;;;10.93;10.03;;;;;;;18.13;89.33;98468.11;2206420;79;21052;-78
2022/06/08 07:38:22;;;;;;;9.63;8.73;;;;;;;18.19;88.34;98470.19;2208325;80;21046;-79
2022/06/08 07:41:23;;;;;;;9.20;8.40;;;;;;;18.23;87.91;98474.52;2207418;79;21055;-78
2022/06/08 07:44:23;;;;;;;9.90;8.98;;;;;;;18.18;87.51;98473.28;2208039;79;20957;-77
2022/06/08 07:47:23;;;;;;;8.63;7.92;;;;;;;18.09;87.79;98472.19;2206119;79;20987;-78
2022/06/08 07:50:24;;;;;;;8.93;8.03;;;;;;;18.02;88.04;98477.20;2205888;79;20960;-78
2022/06/08 07:53:24;;;;;;;8.63;7.92;;;;;;;17.92;88.00;98470.40;2205230;79;21023;-78
2022/06/08 07:56:25;;;;;;;10.03;9.23;;;;;;;17.84;88.25;98477.17;2203519;81;21615;-77
2022/06/08 07:59:25;;;;;;;11.70;10.55;;;;;;;17.77;88.45;98482.18;2204643;79;21004;-78
2022/06/08 08:02:25;;;;;;;17.20;15.45;;;;;;;17.75;88.75;98474.30;2205094;81;20964;-78
2022/06/08 08:05:26;;;;;;;19.02;17.20;;;;;;;17.73;88.80;98473.91;2204895;80;21588;-78
2022/06/08 08:08:26;;;;;;;23.18;19.23;;;;;;;17.69;88.91;98477.08;2205924;79;21202;-79
2022/06/08 08:11:27;;;;;;;15.78;14.33;;;;;;;17.68;89.59;98472.70;2205075;79;21067;-79
2022/06/08 08:14:27;;;;;;;14.78;13.25;;;;;;;17.65;89.56;98471.87;2204647;80;21462;-79
2022/06/08 08:17:27;;;;;;;12.50;11.40;;;;;;;17.67;89.70;98466.14;2204087;79;21062;-79
2022/06/08 08:20:29;;;;;;;12.53;11.53;;;;;;;17.68;90.34;98462.14;2204536;79;21219;-80
2022/06/08 08:23:28;;;;;;;11.97;10.78;;;;;;;17.68;90.15;98464.78;2206175;79;21019;-78
2022/06/08 08:26:29;;;;;;;12.03;10.90;;;;;;;17.68;89.89;98456.86;2206017;79;21110;-78
2022/06/08 08:29:30;;;;;;;12.30;11.15;;;;;;;17.70;90.20;98457.70;2205670;81;21039;-78
2022/06/08 08:32:31;;;;;;;12.85;10.50;;;;;;;17.75;89.96;98463.73;2205035;79;20991;-79
2022/06/08 08:35:31;;;;;;;11.78;10.78;;;;;;;17.78;89.76;98471.59;2162563;82;20991;-80
2022/06/08 08:38:31;;;;;;;11.40;10.30;;;;;;;17.75;89.60;98462.87;2156308;82;21438;-78
2022/06/08 08:44:51;;;;;;;12.65;11.45;;;;;;;17.85;89.45;98480.23;2156526;83;20965;-78
2022/06/08 08:47:51;;;;;;;12.25;11.12;;;;;;;17.78;89.19;98468.95;2155416;83;21423;-79
2022/06/08 08:50:52;;;;;;;12.25;11.22;;;;;;;17.73;89.76;98467.31;2154821;83;20992;-79
2022/06/08 08:53:52;;;;;;;12.43;11.20;;;;;;;17.72;89.80;98471.73;2154686;83;21040;-80
2022/06/08 08:56:53;;;;;;;11.60;10.30;;;;;;;17.71;89.82;98474.41;2153724;83;21039;-77
2022/06/08 08:59:53;;;;;;;10.35;9.55;;;;;;;17.72;89.58;98475.69;2153902;83;21441;-79
2022/06/08 09:06:12;;;;;;;11.00;10.00;;;;;;;17.83;89.66;98470.16;2157045;83;21527;-79
2022/06/08 09:09:13;;;;;;;11.35;10.20;;;;;;;17.92;89.52;98459.84;2157236;83;20972;-78
2022/06/08 09:12:16;;;;;;;11.25;9.83;;;;;;;18.04;89.71;98461.73;2157142;83;21060;-78
2022/06/08 09:15:16;;;;;;;11.45;10.45;;;;;;;18.10;89.35;98460.26;2128320;83;21019;-79
2022/06/08 09:18:16;;;;;;;10.58;9.78;;;;;;;18.16;89.40;98457.92;2159156;82;21351;-80
2022/06/08 09:21:17;;;;;;;11.25;10.13;;;;;;;18.20;89.28;98458.26;2128866;84;21039;-78
2022/06/08 09:24:17;;;;;;;12.45;11.18;;;;;;;18.23;89.13;98460.86;2157354;82;21253;-79
2022/06/08 09:27:18;;;;;;;12.23;10.98;;;;;;;18.26;88.97;98450.67;2164631;82;21059;-78
2022/06/08 09:30:18;;;;;;;14.30;12.65;;;;;;;18.26;88.84;98446.25;2169984;82;21479;-78
2022/06/08 09:33:18;;;;;;;12.00;10.80;;;;;;;18.29;88.75;98446.63;2169825;82;21021;-77
2022/06/08 09:36:19;;;;;;;12.33;11.08;;;;;;;18.33;88.48;98457.08;2169574;82;20979;-78
2022/06/08 09:39:19;;;;;;;12.73;11.68;;;;;;;18.42;88.78;98450.69;2168415;82;21004;-78
2022/06/08 09:42:19;;;;;;;12.43;11.18;;;;;;;18.50;88.33;98446.52;2168768;82;21035;-78
2022/06/08 09:45:20;;;;;;;10.75;9.95;;;;;;;18.52;88.02;98446.90;2170448;82;21373;-78
2022/06/08 09:51:39;;;;;;;11.83;10.93;;;;;;;18.51;88.07;98444.30;2211277;80;20972;-80
2022/06/08 09:54:40;;;;;;;11.68;10.53;;;;;;;18.62;88.32;98447.10;2211593;80;21015;-81
2022/06/08 09:57:41;;;;;;;10.88;9.88;;;;;;;18.76;87.64;98456.84;2212543;81;21023;-79
2022/06/08 10:00:41;;;;;;;11.30;10.50;;;;;;;19.02;87.56;98463.20;2212171;81;20890;-80
2022/06/08 10:03:41;;;;;;;11.00;9.58;;;;;;;19.22;86.16;98463.52;2210664;80;21000;-80
2022/06/08 10:06:41;;;;;;;12.33;11.03;;;;;;;19.29;84.59;98471.70;2211463;80;20956;-80
2022/06/08 10:09:42;;;;;;;11.93;10.90;;;;;;;19.42;84.32;98468.23;2212344;80;21373;-80
2022/06/08 10:12:43;;;;;;;11.68;10.68;;;;;;;19.58;83.75;98462.05;2210926;80;21046;-79
2022/06/08 10:15:43;;;;;;;12.07;10.90;;;;;;;19.66;83.08;98451.64;2210427;80;20992;-79
2022/06/08 10:18:43;;;;;;;12.23;11.33;;;;;;;19.75;82.40;98457.56;2210817;80;20956;-80
2022/06/08 10:21:47;;;;;;;12.50;11.40;;;;;;;19.70;82.52;98453.73;2210374;80;20984;-79
2022/06/08 10:24:49;;;;;;;12.00;11.00;;;;;;;19.55;82.76;98467.44;2209939;80;21370;-80
2022/06/08 10:27:48;;;;;;;14.50;11.70;;;;;;;19.27;83.59;98470.88;2209374;80;20964;-77
2022/06/08 10:30:48;;;;;;;13.03;11.75;;;;;;;19.03;83.69;98468.44;2211089;79;20983;-78
2022/06/08 10:33:48;;;;;;;13.05;11.88;;;;;;;18.87;84.31;98473.74;2211644;79;21126;-79
2022/06/08 10:36:49;;;;;;;12.68;11.55;;;;;;;18.70;84.71;98464.08;2213641;79;21003;-79
2022/06/08 10:39:49;;;;;;;13.30;12.20;;;;;;;18.58;84.87;98459.08;2214226;79;20932;-79
2022/06/08 10:42:50;;;;;;;12.30;11.33;;;;;;;18.52;85.92;98451.31;2213530;79;21004;-79
2022/06/08 10:45:50;;;;;;;11.15;10.08;;;;;;;18.48;85.65;98451.84;2211812;79;20948;-78
2022/06/08 10:48:50;;;;;;;10.60;9.70;;;;;;;18.48;85.87;98444.38;2212598;79;20964;-79
2022/06/08 10:51:51;;;;;;;10.58;9.65;;;;;;;18.62;85.99;98448.42;2213730;79;21599;-78
2022/06/08 10:54:54;;;;;;;10.32;9.53;;;;;;;18.69;85.60;98445.16;2214360;80;20987;-79
2022/06/08 10:57:54;;;;;;;9.58;8.78;;;;;;;18.71;85.80;98445.98;2212930;79;20983;-78
2022/06/08 11:00:58;;;;;;;9.43;8.68;;;;;;;18.71;85.61;98443.34;2211279;79;20912;-78
2022/06/08 11:03:55;;;;;;;14.93;9.35;;;;;;;18.75;85.48;98443.67;2212764;79;21494;-78
2022/06/08 11:06:57;;;;;;;10.78;9.85;;;;;;;18.81;86.31;98438.22;2211772;79;21007;-77
2022/06/08 11:09:56;;;;;;;10.93;10.03;;;;;;;18.83;85.88;98436.84;2211483;79;20980;-77
2022/06/08 11:12:56;;;;;;;11.97;10.98;;;;;;;18.81;86.40;98430.73;2209472;79;21015;-77
2022/06/08 11:15:57;;;;;;;11.05;9.93;;;;;;;18.90;85.92;98426.05;2210674;79;20991;-79
2022/06/08 11:18:57;;;;;;;10.05;9.15;;;;;;;18.96;86.24;98429.84;2211830;79;21931;-78
2022/06/08 11:21:58;;;;;;;10.32;9.58;;;;;;;19.03;84.96;98421.28;2212519;79;20975;-77
2022/06/08 11:24:58;;;;;;;10.58;9.78;;;;;;;19.18;85.29;98421.33;2212039;79;20951;-78
2022/06/08 11:27:58;;;;;;;10.32;9.40;;;;;;;19.28;84.57;98417.04;2210344;80;21043;-78
2022/06/08 11:30:59;;;;;;;10.50;9.50;;;;;;;19.35;84.50;98413.75;2209260;80;20995;-79
2022/06/08 11:33:59;;;;;;;10.93;10.00;;;;;;;19.31;84.46;98416.08;2208835;80;20980;-79
2022/06/08 11:37:00;;;;;;;10.35;9.38;;;;;;;19.38;84.95;98414.98;2208914;80;21008;-79
2022/06/08 11:40:00;;;;;;;10.03;9.23;;;;;;;19.54;83.65;98407.02;2209638;80;21229;-80
2022/06/08 11:43:00;;;;;;;8.95;8.15;;;;;;;19.76;83.13;98406.34;2210361;80;21526;-78
2022/06/08 11:46:01;;;;;;;9.88;9.08;;;;;;;19.97;82.91;98397.73;2208043;80;21403;-79
2022/06/08 11:49:01;;;;;;;9.65;8.88;;;;;;;20.08;83.29;98398.69;2209166;80;20992;-79
2022/06/08 11:52:02;;;;;;;9.68;8.88;;;;;;;20.19;82.88;98396.55;2209661;81;21011;-79
2022/06/08 11:55:02;;;;;;;10.50;9.00;;;;;;;20.32;81.51;98389.91;2209427;80;20983;-79
2022/06/08 11:58:04;;;;;;;9.45;8.75;;;;;;;20.77;81.72;98383.92;2207975;80;20948;-80
2022/06/08 12:01:03;;;;;;;10.43;9.53;;;;;;;21.17;78.43;98370.93;2209474;80;20983;-79
2022/06/08 12:04:03;;;;;;;9.80;9.10;;;;;;;21.24;77.28;98372.92;2207403;80;21003;-80
2022/06/08 12:07:04;;;;;;;11.15;10.28;;;;;;;21.44;78.68;98365.05;2207677;80;21058;-80
2022/06/08 12:10:04;;;;;;;10.20;9.43;;;;;;;21.37;77.17;98367.54;2205795;80;20956;-78
2022/06/08 12:13:04;;;;;;;10.55;9.48;;;;;;;21.10;77.79;98368.57;2206507;81;21027;-79
2022/06/08 12:16:05;;;;;;;12.18;11.03;;;;;;;20.89;77.43;98367.12;2206942;81;21054;-79
2022/06/08 12:19:06;;;;;;;11.15;10.15;;;;;;;20.53;78.67;98364.00;2206919;80;20944;-79
2022/06/08 12:22:06;;;;;;;11.95;11.05;;;;;;;20.35;79.49;98364.16;2205935;80;20964;-79
2022/06/08 12:25:06;;;;;;;13.03;11.73;;;;;;;20.30;79.92;98366.11;2203353;81;21039;-79
2022/06/08 12:28:07;;;;;;;12.98;11.68;;;;;;;20.24;80.58;98356.18;2205490;80;21312;-77
2022/06/08 12:31:07;;;;;;;12.88;11.78;;;;;;;20.15;80.90;98362.66;2207229;79;21014;-77
2022/06/08 12:34:07;;;;;;;12.40;11.35;;;;;;;20.11;81.28;98368.98;2207413;79;21565;-78
2022/06/08 12:37:08;;;;;;;13.75;12.50;;;;;;;20.10;81.48;98366.39;2207618;79;21323;-78
2022/06/08 12:40:08;;;;;;;13.28;11.88;;;;;;;20.17;81.10;98370.56;2208736;79;20960;-77
2022/06/08 12:43:12;;;;;;;12.50;11.50;;;;;;;20.22;81.84;98368.16;2208684;79;21075;-77
2022/06/08 12:46:13;;;;;;;11.30;10.13;;;;;;;20.43;81.62;98365.71;2211971;79;21414;-78
2022/06/08 12:49:13;;;;;;;12.10;10.90;;;;;;;20.55;80.31;98358.64;2210124;79;20983;-77
2022/06/08 12:52:13;;;;;;;11.68;10.58;;;;;;;20.63;80.36;98358.77;2210404;80;20991;-79
2022/06/08 12:55:14;;;;;;;11.10;10.30;;;;;;;20.66;79.26;98359.12;2215170;79;20996;-84
2022/06/08 12:58:14;;;;;;;12.63;11.40;;;;;;;20.56;79.20;98361.70;2215697;80;21062;-83
2022/06/08 13:01:14;;;;;;;11.85;10.85;;;;;;;20.43;80.21;98361.73;2214654;79;20983;-84
2022/06/08 13:04:15;;;;;;;11.75;10.75;;;;;;;20.29;80.13;98359.08;2215337;80;20944;-83
2022/06/08 13:07:15;;;;;;;11.55;10.65;;;;;;;20.17;80.85;98362.61;2215032;79;20948;-83
2022/06/08 13:10:16;;;;;;;14.03;10.50;;;;;;;20.10;80.46;98362.41;2214594;79;20928;-82
2022/06/08 13:13:16;;;;;;;11.60;10.70;;;;;;;20.08;81.14;98360.27;2213520;80;21500;-85
2022/06/08 13:16:16;;;;;;;12.75;10.32;;;;;;;20.06;81.17;98359.00;2214441;79;21401;-85
2022/06/08 13:19:17;;;;;;;10.90;9.85;;;;;;;20.00;81.14;98355.23;2213756;79;20952;-85
2022/06/08 13:22:17;;;;;;;11.97;10.98;;;;;;;19.99;81.57;98364.10;2212450;79;20940;-84
2022/06/08 13:25:18;;;;;;;11.08;10.10;;;;;;;20.11;82.15;98362.82;2212446;79;21439;-85
2022/06/08 13:28:20;;;;;;;11.25;10.35;;;;;;;20.22;81.31;98354.05;2200915;80;21047;-86
2022/06/08 13:31:23;;;;;;;14.30;10.38;;;;;;;20.35;81.11;98352.23;2212393;79;20980;-86
2022/06/08 13:34:27;;;;;;;14.43;9.93;;;;;;;20.57;80.10;98342.22;2213137;80;21014;-85
2022/06/08 13:37:27;;;;;;;10.15;8.70;;;;;;;20.75;80.27;98334.92;2213181;80;20995;-83
2022/06/08 13:40:28;;;;;;;10.15;9.28;;;;;;;20.91;79.45;98332.13;2213493;79;20984;-86
2022/06/08 13:43:28;;;;;;;9.40;8.65;;;;;;;21.26;79.73;98327.28;2212500;79;21078;-85
2022/06/08 13:46:29;;;;;;;9.05;8.30;;;;;;;21.62;77.87;98323.61;2213167;79;20921;-81
2022/06/08 13:49:29;;;;;;;8.90;8.20;;;;;;;21.95;77.05;98322.70;2212331;79;20992;-80
2022/06/08 13:52:30;;;;;;;9.10;8.40;;;;;;;22.27;75.81;98331.13;2214502;79;21007;-82
2022/06/08 13:55:30;;;;;;;9.83;8.80;;;;;;;22.23;75.81;98325.94;2215774;79;21791;-82
2022/06/08 13:58:30;;;;;;;9.38;8.45;;;;;;;22.24;74.48;98328.13;2214599;79;21038;-81
2022/06/08 14:01:31;;;;;;;10.40;8.90;;;;;;;22.13;74.59;98330.39;2214565;79;21028;-81
2022/06/08 14:04:31;;;;;;;9.45;8.28;;;;;;;22.14;75.19;98323.68;2214427;79;20955;-83
2022/06/08 14:14:09;;;;;;;17.80;8.35;;;;;;;22.54;72.93;98314.84;2214629;80;20999;-80